sensor_id;sensor_type;location;lat;lon;timestamp;P1;durP1;ratioP1;P2;durP2;ratioP2
35675;SDS011;21790;42.668;23.298;2022-08-30T00:00:09;12.23;;;8.15;;
35675;SDS011;21790;42.668;23.298;2022-08-30T00:02:57;16.83;;;8.13;;
35675;SDS011;21790;42.668;23.298;2022-08-30T00:05:25;16.35;;;8.77;;
35675;SDS011;21790;42.668;23.298;2022-08-30T00:07:51;13.90;;;7.78;;
35675;SDS011;21790;42.668;23.298;2022-08-30T00:10:17;13.48;;;7.82;;
35675;SDS011;21790;42.668;23.298;2022-08-30T00:12:42;10.30;;;7.63;;
35675;SDS011;21790;42.668;23.298;2022-08-30T00:15:08;18.02;;;8.43;;
35675;SDS011;21790;42.668;23.298;2022-08-30T00:17:36;11.98;;;8.63;;
35675;SDS011;21790;42.668;23.298;2022-08-30T00:20:03;18.13;;;8.52;;
35675;SDS011;21790;42.668;23.298;2022-08-30T00:24:59;16.10;;;8.00;;
35675;SDS011;21790;42.668;23.298;2022-08-30T00:27:25;19.38;;;9.18;;
35675;SDS011;21790;42.668;23.298;2022-08-30T00:29:54;15.65;;;8.73;;
35675;SDS011;21790;42.668;23.298;2022-08-30T00:32:20;13.80;;;8.23;;
35675;SDS011;21790;42.668;23.298;2022-08-30T00:34:47;12.35;;;8.20;;
35675;SDS011;21790;42.668;23.298;2022-08-30T00:37:14;13.18;;;8.30;;
35675;SDS011;21790;42.668;23.298;2022-08-30T00:39:40;14.95;;;7.85;;
35675;SDS011;21790;42.668;23.298;2022-08-30T00:42:06;16.30;;;7.88;;
35675;SDS011;21790;42.668;23.298;2022-08-30T00:44:31;13.05;;;7.45;;
35675;SDS011;21790;42.668;23.298;2022-08-30T00:46:57;13.35;;;8.15;;
35675;SDS011;21790;42.668;23.298;2022-08-30T00:49:22;16.83;;;8.88;;
35675;SDS011;21790;42.668;23.298;2022-08-30T00:51:49;14.65;;;8.35;;
35675;SDS011;21790;42.668;23.298;2022-08-30T00:54:14;10.90;;;7.80;;
35675;SDS011;21790;42.668;23.298;2022-08-30T00:56:42;15.25;;;8.68;;
35675;SDS011;21790;42.668;23.298;2022-08-30T00:59:08;13.57;;;7.97;;
35675;SDS011;21790;42.668;23.298;2022-08-30T01:01:34;13.77;;;7.68;;
35675;SDS011;21790;42.668;23.298;2022-08-30T01:04:02;13.73;;;7.95;;
35675;SDS011;21790;42.668;23.298;2022-08-30T01:06:29;14.60;;;7.40;;
35675;SDS011;21790;42.668;23.298;2022-08-30T01:08:58;14.27;;;8.15;;
35675;SDS011;21790;42.668;23.298;2022-08-30T01:11:25;10.95;;;7.72;;
35675;SDS011;21790;42.668;23.298;2022-08-30T01:13:52;15.20;;;7.82;;
35675;SDS011;21790;42.668;23.298;2022-08-30T01:16:20;14.50;;;8.05;;
35675;SDS011;21790;42.668;23.298;2022-08-30T01:18:46;11.88;;;8.20;;
35675;SDS011;21790;42.668;23.298;2022-08-30T01:24:03;12.75;;;7.07;;
35675;SDS011;21790;42.668;23.298;2022-08-30T01:26:30;13.45;;;7.63;;
35675;SDS011;21790;42.668;23.298;2022-08-30T01:28:59;16.92;;;8.15;;
35675;SDS011;21790;42.668;23.298;2022-08-30T01:34:04;12.65;;;7.88;;
35675;SDS011;21790;42.668;23.298;2022-08-30T01:36:33;14.85;;;8.88;;
35675;SDS011;21790;42.668;23.298;2022-08-30T01:39:00;17.27;;;8.07;;
35675;SDS011;21790;42.668;23.298;2022-08-30T01:41:28;18.40;;;7.85;;
35675;SDS011;21790;42.668;23.298;2022-08-30T01:43:57;15.52;;;7.93;;
35675;SDS011;21790;42.668;23.298;2022-08-30T01:46:26;11.77;;;8.10;;
35675;SDS011;21790;42.668;23.298;2022-08-30T01:48:55;15.65;;;8.57;;
35675;SDS011;21790;42.668;23.298;2022-08-30T01:51:23;14.95;;;7.85;;
35675;SDS011;21790;42.668;23.298;2022-08-30T01:53:50;16.38;;;7.80;;
35675;SDS011;21790;42.668;23.298;2022-08-30T01:56:16;15.20;;;7.75;;
35675;SDS011;21790;42.668;23.298;2022-08-30T01:58:42;15.00;;;8.00;;
35675;SDS011;21790;42.668;23.298;2022-08-30T02:01:10;12.98;;;7.90;;
35675;SDS011;21790;42.668;23.298;2022-08-30T02:03:39;13.10;;;8.45;;
35675;SDS011;21790;42.668;23.298;2022-08-30T02:06:08;15.65;;;8.75;;
35675;SDS011;21790;42.668;23.298;2022-08-30T02:08:36;16.13;;;8.05;;
35675;SDS011;21790;42.668;23.298;2022-08-30T02:11:04;13.85;;;7.55;;
35675;SDS011;21790;42.668;23.298;2022-08-30T02:13:31;11.75;;;8.27;;
35675;SDS011;21790;42.668;23.298;2022-08-30T02:15:56;13.23;;;8.52;;
35675;SDS011;21790;42.668;23.298;2022-08-30T02:18:23;12.18;;;8.45;;
35675;SDS011;21790;42.668;23.298;2022-08-30T02:20:50;12.20;;;8.10;;
35675;SDS011;21790;42.668;23.298;2022-08-30T02:23:16;13.35;;;8.05;;
35675;SDS011;21790;42.668;23.298;2022-08-30T02:25:42;18.73;;;7.72;;
35675;SDS011;21790;42.668;23.298;2022-08-30T02:28:10;12.93;;;8.52;;
35675;SDS011;21790;42.668;23.298;2022-08-30T02:30:37;10.57;;;7.75;;
35675;SDS011;21790;42.668;23.298;2022-08-30T02:33:03;16.92;;;8.65;;
35675;SDS011;21790;42.668;23.298;2022-08-30T02:35:28;11.98;;;7.88;;
35675;SDS011;21790;42.668;23.298;2022-08-30T02:37:56;11.15;;;7.80;;
35675;SDS011;21790;42.668;23.298;2022-08-30T02:40:22;14.98;;;7.57;;
35675;SDS011;21790;42.668;23.298;2022-08-30T02:42:47;20.95;;;8.18;;
35675;SDS011;21790;42.668;23.298;2022-08-30T02:45:13;10.50;;;7.43;;
35675;SDS011;21790;42.668;23.298;2022-08-30T02:47:39;11.68;;;7.57;;
35675;SDS011;21790;42.668;23.298;2022-08-30T02:50:06;10.93;;;7.38;;
35675;SDS011;21790;42.668;23.298;2022-08-30T02:52:33;21.05;;;11.68;;
35675;SDS011;21790;42.668;23.298;2022-08-30T02:54:58;15.85;;;9.30;;
35675;SDS011;21790;42.668;23.298;2022-08-30T02:57:24;14.32;;;8.07;;
35675;SDS011;21790;42.668;23.298;2022-08-30T02:59:50;14.80;;;8.25;;
35675;SDS011;21790;42.668;23.298;2022-08-30T03:02:16;11.95;;;7.93;;
35675;SDS011;21790;42.668;23.298;2022-08-30T03:04:41;9.73;;;7.97;;
35675;SDS011;21790;42.668;23.298;2022-08-30T03:07:09;15.98;;;9.05;;
35675;SDS011;21790;42.668;23.298;2022-08-30T03:09:36;12.40;;;8.48;;
35675;SDS011;21790;42.668;23.298;2022-08-30T03:12:03;10.70;;;8.10;;
35675;SDS011;21790;42.668;23.298;2022-08-30T03:14:31;12.52;;;8.50;;
35675;SDS011;21790;42.668;23.298;2022-08-30T03:16:57;14.00;;;7.88;;
35675;SDS011;21790;42.668;23.298;2022-08-30T03:19:23;12.55;;;7.70;;
35675;SDS011;21790;42.668;23.298;2022-08-30T03:21:49;14.10;;;7.97;;
35675;SDS011;21790;42.668;23.298;2022-08-30T03:24:15;15.57;;;9.43;;
35675;SDS011;21790;42.668;23.298;2022-08-30T03:26:41;11.57;;;7.82;;
35675;SDS011;21790;42.668;23.298;2022-08-30T03:29:06;12.65;;;7.80;;
35675;SDS011;21790;42.668;23.298;2022-08-30T03:31:31;15.63;;;8.50;;
35675;SDS011;21790;42.668;23.298;2022-08-30T03:33:59;14.18;;;8.57;;
35675;SDS011;21790;42.668;23.298;2022-08-30T03:36:25;15.75;;;8.98;;
35675;SDS011;21790;42.668;23.298;2022-08-30T03:38:52;15.18;;;8.80;;
35675;SDS011;21790;42.668;23.298;2022-08-30T03:41:17;17.75;;;8.90;;
35675;SDS011;21790;42.668;23.298;2022-08-30T03:43:43;17.10;;;8.73;;
35675;SDS011;21790;42.668;23.298;2022-08-30T03:46:11;11.13;;;7.47;;
35675;SDS011;21790;42.668;23.298;2022-08-30T03:48:38;14.10;;;8.10;;
35675;SDS011;21790;42.668;23.298;2022-08-30T03:51:04;14.00;;;8.50;;
35675;SDS011;21790;42.668;23.298;2022-08-30T03:53:29;12.88;;;9.30;;
35675;SDS011;21790;42.668;23.298;2022-08-30T03:55:55;23.15;;;11.45;;
35675;SDS011;21790;42.668;23.298;2022-08-30T03:58:20;26.48;;;15.82;;
35675;SDS011;21790;42.668;23.298;2022-08-30T04:00:48;47.90;;;24.30;;
35675;SDS011;21790;42.668;23.298;2022-08-30T04:03:14;27.77;;;15.85;;
35675;SDS011;21790;42.668;23.298;2022-08-30T04:05:40;16.13;;;9.68;;
35675;SDS011;21790;42.668;23.298;2022-08-30T04:08:06;15.07;;;10.13;;
35675;SDS011;21790;42.668;23.298;2022-08-30T04:10:32;16.25;;;9.82;;
35675;SDS011;21790;42.668;23.298;2022-08-30T04:12:59;15.18;;;9.73;;
35675;SDS011;21790;42.668;23.298;2022-08-30T04:15:24;13.93;;;9.20;;
35675;SDS011;21790;42.668;23.298;2022-08-30T04:17:50;18.20;;;9.63;;
35675;SDS011;21790;42.668;23.298;2022-08-30T04:20:18;15.52;;;9.82;;
35675;SDS011;21790;42.668;23.298;2022-08-30T04:22:43;13.27;;;9.07;;
35675;SDS011;21790;42.668;23.298;2022-08-30T04:25:09;15.07;;;10.60;;
35675;SDS011;21790;42.668;23.298;2022-08-30T04:27:35;17.90;;;9.82;;
35675;SDS011;21790;42.668;23.298;2022-08-30T04:30:01;16.10;;;9.85;;
35675;SDS011;21790;42.668;23.298;2022-08-30T04:32:28;13.38;;;9.15;;
35675;SDS011;21790;42.668;23.298;2022-08-30T04:34:56;14.00;;;9.23;;
35675;SDS011;21790;42.668;23.298;2022-08-30T04:37:23;19.92;;;10.48;;
35675;SDS011;21790;42.668;23.298;2022-08-30T04:39:49;13.38;;;9.43;;
35675;SDS011;21790;42.668;23.298;2022-08-30T04:42:14;13.18;;;9.25;;
35675;SDS011;21790;42.668;23.298;2022-08-30T04:44:40;19.38;;;10.13;;
35675;SDS011;21790;42.668;23.298;2022-08-30T04:47:05;25.00;;;10.32;;
35675;SDS011;21790;42.668;23.298;2022-08-30T04:49:34;19.23;;;9.88;;
35675;SDS011;21790;42.668;23.298;2022-08-30T04:52:00;20.05;;;10.55;;
35675;SDS011;21790;42.668;23.298;2022-08-30T04:54:25;18.83;;;9.95;;
35675;SDS011;21790;42.668;23.298;2022-08-30T04:56:51;16.65;;;9.90;;
35675;SDS011;21790;42.668;23.298;2022-08-30T04:59:16;15.07;;;9.52;;
35675;SDS011;21790;42.668;23.298;2022-08-30T05:01:42;13.27;;;8.93;;
35675;SDS011;21790;42.668;23.298;2022-08-30T05:04:07;17.45;;;9.63;;
35675;SDS011;21790;42.668;23.298;2022-08-30T05:06:33;15.45;;;9.15;;
35675;SDS011;21790;42.668;23.298;2022-08-30T05:08:58;15.18;;;9.68;;
35675;SDS011;21790;42.668;23.298;2022-08-30T05:11:26;15.93;;;10.32;;
35675;SDS011;21790;42.668;23.298;2022-08-30T05:13:53;15.57;;;9.20;;
35675;SDS011;21790;42.668;23.298;2022-08-30T05:16:18;15.60;;;9.60;;
35675;SDS011;21790;42.668;23.298;2022-08-30T05:18:44;21.13;;;10.50;;
35675;SDS011;21790;42.668;23.298;2022-08-30T05:21:16;16.27;;;10.38;;
35675;SDS011;21790;42.668;23.298;2022-08-30T05:23:46;14.65;;;10.13;;
35675;SDS011;21790;42.668;23.298;2022-08-30T05:26:14;22.08;;;11.13;;
35675;SDS011;21790;42.668;23.298;2022-08-30T05:28:41;22.35;;;10.65;;
35675;SDS011;21790;42.668;23.298;2022-08-30T05:31:12;16.58;;;10.93;;
35675;SDS011;21790;42.668;23.298;2022-08-30T05:33:37;18.70;;;9.80;;
35675;SDS011;21790;42.668;23.298;2022-08-30T05:36:06;18.25;;;9.60;;
35675;SDS011;21790;42.668;23.298;2022-08-30T05:38:33;17.63;;;10.77;;
35675;SDS011;21790;42.668;23.298;2022-08-30T05:40:58;24.13;;;11.60;;
35675;SDS011;21790;42.668;23.298;2022-08-30T05:43:23;19.60;;;10.48;;
35675;SDS011;21790;42.668;23.298;2022-08-30T05:45:56;17.23;;;10.68;;
35675;SDS011;21790;42.668;23.298;2022-08-30T05:48:23;19.02;;;10.77;;
35675;SDS011;21790;42.668;23.298;2022-08-30T05:50:49;20.15;;;11.50;;
35675;SDS011;21790;42.668;23.298;2022-08-30T05:53:14;24.05;;;12.05;;
35675;SDS011;21790;42.668;23.298;2022-08-30T05:55:40;27.80;;;11.40;;
35675;SDS011;21790;42.668;23.298;2022-08-30T05:58:06;23.67;;;11.27;;
35675;SDS011;21790;42.668;23.298;2022-08-30T06:00:31;19.98;;;11.43;;
35675;SDS011;21790;42.668;23.298;2022-08-30T06:03:00;20.30;;;11.57;;
35675;SDS011;21790;42.668;23.298;2022-08-30T06:05:27;16.40;;;11.80;;
35675;SDS011;21790;42.668;23.298;2022-08-30T06:07:52;21.08;;;10.98;;
35675;SDS011;21790;42.668;23.298;2022-08-30T06:10:18;37.33;;;16.42;;
35675;SDS011;21790;42.668;23.298;2022-08-30T06:12:43;44.38;;;19.30;;
35675;SDS011;21790;42.668;23.298;2022-08-30T06:15:09;62.03;;;25.45;;
35675;SDS011;21790;42.668;23.298;2022-08-30T06:17:35;38.80;;;20.88;;
35675;SDS011;21790;42.668;23.298;2022-08-30T06:20:03;40.22;;;21.55;;
35675;SDS011;21790;42.668;23.298;2022-08-30T06:22:29;35.22;;;16.60;;
35675;SDS011;21790;42.668;23.298;2022-08-30T06:24:55;53.58;;;25.13;;
35675;SDS011;21790;42.668;23.298;2022-08-30T06:27:21;36.83;;;18.25;;
35675;SDS011;21790;42.668;23.298;2022-08-30T06:29:49;30.92;;;18.10;;
35675;SDS011;21790;42.668;23.298;2022-08-30T06:32:15;41.55;;;20.20;;
35675;SDS011;21790;42.668;23.298;2022-08-30T06:34:43;29.58;;;15.82;;
35675;SDS011;21790;42.668;23.298;2022-08-30T06:37:09;32.65;;;15.52;;
35675;SDS011;21790;42.668;23.298;2022-08-30T06:39:35;28.83;;;13.93;;
35675;SDS011;21790;42.668;23.298;2022-08-30T06:42:00;25.35;;;14.38;;
35675;SDS011;21790;42.668;23.298;2022-08-30T06:44:26;24.33;;;13.75;;
35675;SDS011;21790;42.668;23.298;2022-08-30T06:46:51;17.48;;;11.65;;
35675;SDS011;21790;42.668;23.298;2022-08-30T06:49:17;23.15;;;11.88;;
35675;SDS011;21790;42.668;23.298;2022-08-30T06:51:42;22.30;;;12.65;;
35675;SDS011;21790;42.668;23.298;2022-08-30T06:54:10;25.17;;;12.10;;
35675;SDS011;21790;42.668;23.298;2022-08-30T06:56:36;20.88;;;12.48;;
35675;SDS011;21790;42.668;23.298;2022-08-30T06:59:02;23.33;;;11.25;;
35675;SDS011;21790;42.668;23.298;2022-08-30T07:01:28;21.40;;;11.48;;
35675;SDS011;21790;42.668;23.298;2022-08-30T07:03:54;20.67;;;11.70;;
35675;SDS011;21790;42.668;23.298;2022-08-30T07:06:21;18.17;;;11.55;;
35675;SDS011;21790;42.668;23.298;2022-08-30T07:08:48;22.10;;;12.98;;
35675;SDS011;21790;42.668;23.298;2022-08-30T07:11:23;22.23;;;12.50;;
35675;SDS011;21790;42.668;23.298;2022-08-30T07:13:49;21.20;;;13.15;;
35675;SDS011;21790;42.668;23.298;2022-08-30T07:16:15;21.88;;;12.93;;
35675;SDS011;21790;42.668;23.298;2022-08-30T07:18:40;21.20;;;13.15;;
35675;SDS011;21790;42.668;23.298;2022-08-30T07:21:16;24.25;;;12.63;;
35675;SDS011;21790;42.668;23.298;2022-08-30T07:23:44;26.10;;;13.30;;
35675;SDS011;21790;42.668;23.298;2022-08-30T07:26:13;19.63;;;11.18;;
35675;SDS011;21790;42.668;23.298;2022-08-30T07:28:40;18.67;;;11.77;;
35675;SDS011;21790;42.668;23.298;2022-08-30T07:31:07;16.17;;;10.73;;
35675;SDS011;21790;42.668;23.298;2022-08-30T07:33:35;22.00;;;12.27;;
35675;SDS011;21790;42.668;23.298;2022-08-30T07:36:01;20.05;;;11.70;;
35675;SDS011;21790;42.668;23.298;2022-08-30T07:38:28;18.08;;;10.50;;
35675;SDS011;21790;42.668;23.298;2022-08-30T07:40:55;21.48;;;11.65;;
35675;SDS011;21790;42.668;23.298;2022-08-30T07:43:23;22.65;;;10.75;;
35675;SDS011;21790;42.668;23.298;2022-08-30T07:45:48;24.48;;;12.15;;
35675;SDS011;21790;42.668;23.298;2022-08-30T07:48:14;17.58;;;11.70;;
35675;SDS011;21790;42.668;23.298;2022-08-30T07:50:43;22.85;;;11.85;;
35675;SDS011;21790;42.668;23.298;2022-08-30T07:53:10;20.40;;;11.60;;
35675;SDS011;21790;42.668;23.298;2022-08-30T07:55:36;19.20;;;10.85;;
35675;SDS011;21790;42.668;23.298;2022-08-30T07:58:02;16.25;;;10.02;;
35675;SDS011;21790;42.668;23.298;2022-08-30T08:00:27;22.70;;;11.20;;
35675;SDS011;21790;42.668;23.298;2022-08-30T08:02:53;16.70;;;11.05;;
35675;SDS011;21790;42.668;23.298;2022-08-30T08:05:19;17.58;;;10.13;;
35675;SDS011;21790;42.668;23.298;2022-08-30T08:07:45;16.67;;;10.32;;
35675;SDS011;21790;42.668;23.298;2022-08-30T08:10:11;16.70;;;10.88;;
35675;SDS011;21790;42.668;23.298;2022-08-30T08:12:37;20.65;;;9.90;;
35675;SDS011;21790;42.668;23.298;2022-08-30T08:15:04;20.80;;;11.32;;
35675;SDS011;21790;42.668;23.298;2022-08-30T08:17:31;20.25;;;11.30;;
35675;SDS011;21790;42.668;23.298;2022-08-30T08:19:57;24.15;;;13.55;;
35675;SDS011;21790;42.668;23.298;2022-08-30T08:22:22;23.38;;;14.23;;
35675;SDS011;21790;42.668;23.298;2022-08-30T08:24:48;20.27;;;12.63;;
35675;SDS011;21790;42.668;23.298;2022-08-30T08:27:14;20.15;;;11.88;;
35675;SDS011;21790;42.668;23.298;2022-08-30T08:29:40;18.02;;;12.00;;
35675;SDS011;21790;42.668;23.298;2022-08-30T08:32:06;16.83;;;11.32;;
35675;SDS011;21790;42.668;23.298;2022-08-30T08:34:31;20.92;;;12.73;;
35675;SDS011;21790;42.668;23.298;2022-08-30T08:36:57;20.10;;;10.68;;
35675;SDS011;21790;42.668;23.298;2022-08-30T08:39:22;19.33;;;11.63;;
35675;SDS011;21790;42.668;23.298;2022-08-30T08:42:03;16.63;;;11.63;;
35675;SDS011;21790;42.668;23.298;2022-08-30T08:44:53;17.42;;;11.27;;
35675;SDS011;21790;42.668;23.298;2022-08-30T08:50:34;19.70;;;11.45;;
35675;SDS011;21790;42.668;23.298;2022-08-30T08:53:02;18.98;;;11.15;;
35675;SDS011;21790;42.668;23.298;2022-08-30T08:55:52;17.90;;;12.00;;
35675;SDS011;21790;42.668;23.298;2022-08-30T08:58:21;20.00;;;10.80;;
35675;SDS011;21790;42.668;23.298;2022-08-30T09:00:49;22.48;;;12.00;;
35675;SDS011;21790;42.668;23.298;2022-08-30T09:03:15;21.67;;;11.75;;
35675;SDS011;21790;42.668;23.298;2022-08-30T09:05:44;19.67;;;11.73;;
35675;SDS011;21790;42.668;23.298;2022-08-30T09:08:13;18.42;;;11.55;;
35675;SDS011;21790;42.668;23.298;2022-08-30T09:10:51;19.10;;;11.52;;
35675;SDS011;21790;42.668;23.298;2022-08-30T09:13:24;17.65;;;11.40;;
35675;SDS011;21790;42.668;23.298;2022-08-30T09:15:51;24.50;;;12.55;;
35675;SDS011;21790;42.668;23.298;2022-08-30T09:18:18;13.15;;;9.15;;
35675;SDS011;21790;42.668;23.298;2022-08-30T09:20:45;18.92;;;11.80;;
35675;SDS011;21790;42.668;23.298;2022-08-30T09:25:48;22.35;;;11.90;;
35675;SDS011;21790;42.668;23.298;2022-08-30T09:28:46;23.52;;;11.23;;
35675;SDS011;21790;42.668;23.298;2022-08-30T09:31:20;23.17;;;11.02;;
35675;SDS011;21790;42.668;23.298;2022-08-30T09:34:07;17.50;;;11.40;;
35675;SDS011;21790;42.668;23.298;2022-08-30T09:36:43;17.92;;;11.10;;
35675;SDS011;21790;42.668;23.298;2022-08-30T09:39:14;24.23;;;11.70;;
35675;SDS011;21790;42.668;23.298;2022-08-30T09:41:42;15.27;;;9.85;;
35675;SDS011;21790;42.668;23.298;2022-08-30T09:46:44;16.05;;;10.35;;
35675;SDS011;21790;42.668;23.298;2022-08-30T09:49:40;20.95;;;13.07;;
35675;SDS011;21790;42.668;23.298;2022-08-30T10:00:05;30.13;;;13.07;;
35675;SDS011;21790;42.668;23.298;2022-08-30T10:05:21;24.48;;;12.27;;
35675;SDS011;21790;42.668;23.298;2022-08-30T10:13:43;24.23;;;12.35;;
35675;SDS011;21790;42.668;23.298;2022-08-30T10:22:17;16.17;;;10.02;;
35675;SDS011;21790;42.668;23.298;2022-08-30T10:24:49;21.35;;;11.45;;
35675;SDS011;21790;42.668;23.298;2022-08-30T10:27:39;20.40;;;10.85;;
35675;SDS011;21790;42.668;23.298;2022-08-30T10:30:10;18.30;;;10.80;;
35675;SDS011;21790;42.668;23.298;2022-08-30T10:32:46;20.85;;;12.10;;
35675;SDS011;21790;42.668;23.298;2022-08-30T10:35:14;18.52;;;10.60;;
35675;SDS011;21790;42.668;23.298;2022-08-30T10:37:45;22.75;;;12.18;;
35675;SDS011;21790;42.668;23.298;2022-08-30T10:40:34;23.55;;;10.77;;
35675;SDS011;21790;42.668;23.298;2022-08-30T10:43:33;29.75;;;13.68;;
35675;SDS011;21790;42.668;23.298;2022-08-30T10:46:04;27.70;;;13.73;;
35675;SDS011;21790;42.668;23.298;2022-08-30T10:48:40;23.98;;;12.90;;
35675;SDS011;21790;42.668;23.298;2022-08-30T10:51:19;23.88;;;11.75;;
35675;SDS011;21790;42.668;23.298;2022-08-30T10:56:41;26.73;;;11.77;;
35675;SDS011;21790;42.668;23.298;2022-08-30T10:59:08;19.25;;;12.43;;
35675;SDS011;21790;42.668;23.298;2022-08-30T11:15:12;16.05;;;10.90;;
35675;SDS011;21790;42.668;23.298;2022-08-30T11:17:46;19.67;;;11.85;;
35675;SDS011;21790;42.668;23.298;2022-08-30T11:20:22;17.25;;;11.05;;
35675;SDS011;21790;42.668;23.298;2022-08-30T11:28:58;20.38;;;10.30;;
35675;SDS011;21790;42.668;23.298;2022-08-30T11:33:50;21.15;;;10.23;;
35675;SDS011;21790;42.668;23.298;2022-08-30T11:39:07;18.70;;;10.65;;
35675;SDS011;21790;42.668;23.298;2022-08-30T11:46:50;17.52;;;9.32;;
35675;SDS011;21790;42.668;23.298;2022-08-30T11:51:52;21.33;;;9.05;;
35675;SDS011;21790;42.668;23.298;2022-08-30T11:54:47;19.65;;;9.45;;
35675;SDS011;21790;42.668;23.298;2022-08-30T12:02:42;22.48;;;10.15;;
35675;SDS011;21790;42.668;23.298;2022-08-30T12:05:26;18.60;;;9.40;;
35675;SDS011;21790;42.668;23.298;2022-08-30T12:08:04;14.65;;;8.48;;
35675;SDS011;21790;42.668;23.298;2022-08-30T12:10:41;18.00;;;9.75;;
35675;SDS011;21790;42.668;23.298;2022-08-30T12:13:11;16.33;;;9.35;;
35675;SDS011;21790;42.668;23.298;2022-08-30T12:16:11;19.23;;;9.43;;
35675;SDS011;21790;42.668;23.298;2022-08-30T12:26:34;19.60;;;9.35;;
35675;SDS011;21790;42.668;23.298;2022-08-30T12:34:32;13.82;;;8.73;;
35675;SDS011;21790;42.668;23.298;2022-08-30T12:39:36;17.98;;;9.48;;
35675;SDS011;21790;42.668;23.298;2022-08-30T12:44:41;14.80;;;9.48;;
35675;SDS011;21790;42.668;23.298;2022-08-30T12:47:08;19.10;;;9.32;;
35675;SDS011;21790;42.668;23.298;2022-08-30T12:49:36;13.10;;;8.35;;
35675;SDS011;21790;42.668;23.298;2022-08-30T12:52:27;20.98;;;9.07;;
35675;SDS011;21790;42.668;23.298;2022-08-30T12:55:16;17.27;;;8.88;;
35675;SDS011;21790;42.668;23.298;2022-08-30T13:00:39;16.00;;;8.70;;
35675;SDS011;21790;42.668;23.298;2022-08-30T13:05:48;15.95;;;9.80;;
35675;SDS011;21790;42.668;23.298;2022-08-30T13:15:51;16.58;;;10.50;;
35675;SDS011;21790;42.668;23.298;2022-08-30T13:18:27;19.35;;;9.88;;
35675;SDS011;21790;42.668;23.298;2022-08-30T13:23:59;18.48;;;9.75;;
35675;SDS011;21790;42.668;23.298;2022-08-30T13:26:27;23.58;;;9.07;;
35675;SDS011;21790;42.668;23.298;2022-08-30T13:28:56;14.88;;;9.68;;
35675;SDS011;21790;42.668;23.298;2022-08-30T13:31:24;16.95;;;10.15;;
35675;SDS011;21790;42.668;23.298;2022-08-30T13:33:51;21.05;;;10.85;;
35675;SDS011;21790;42.668;23.298;2022-08-30T13:36:25;21.20;;;9.88;;
35675;SDS011;21790;42.668;23.298;2022-08-30T13:38:56;26.65;;;10.55;;
35675;SDS011;21790;42.668;23.298;2022-08-30T13:41:25;28.58;;;10.65;;
35675;SDS011;21790;42.668;23.298;2022-08-30T13:43:51;17.70;;;10.20;;
35675;SDS011;21790;42.668;23.298;2022-08-30T13:46:17;17.77;;;9.98;;
35675;SDS011;21790;42.668;23.298;2022-08-30T13:48:46;22.98;;;11.65;;
35675;SDS011;21790;42.668;23.298;2022-08-30T13:51:11;19.10;;;10.63;;
35675;SDS011;21790;42.668;23.298;2022-08-30T13:53:37;17.48;;;11.07;;
35675;SDS011;21790;42.668;23.298;2022-08-30T13:56:03;19.65;;;10.10;;
35675;SDS011;21790;42.668;23.298;2022-08-30T13:58:29;17.73;;;10.07;;
35675;SDS011;21790;42.668;23.298;2022-08-30T14:00:56;13.70;;;9.98;;
35675;SDS011;21790;42.668;23.298;2022-08-30T14:03:22;17.98;;;10.85;;
35675;SDS011;21790;42.668;23.298;2022-08-30T14:05:47;15.18;;;10.18;;
35675;SDS011;21790;42.668;23.298;2022-08-30T14:08:15;21.48;;;10.18;;
35675;SDS011;21790;42.668;23.298;2022-08-30T14:10:43;15.00;;;10.25;;
35675;SDS011;21790;42.668;23.298;2022-08-30T14:13:08;19.80;;;9.95;;
35675;SDS011;21790;42.668;23.298;2022-08-30T14:15:35;14.70;;;9.82;;
35675;SDS011;21790;42.668;23.298;2022-08-30T14:18:02;15.85;;;10.02;;
35675;SDS011;21790;42.668;23.298;2022-08-30T14:20:29;14.93;;;9.98;;
35675;SDS011;21790;42.668;23.298;2022-08-30T14:22:54;18.60;;;10.10;;
35675;SDS011;21790;42.668;23.298;2022-08-30T14:25:20;18.55;;;9.80;;
35675;SDS011;21790;42.668;23.298;2022-08-30T14:27:45;23.50;;;10.95;;
35675;SDS011;21790;42.668;23.298;2022-08-30T14:30:11;16.50;;;9.95;;
35675;SDS011;21790;42.668;23.298;2022-08-30T14:32:36;13.23;;;9.77;;
35675;SDS011;21790;42.668;23.298;2022-08-30T14:35:02;16.85;;;10.40;;
35675;SDS011;21790;42.668;23.298;2022-08-30T14:37:27;17.40;;;10.43;;
35675;SDS011;21790;42.668;23.298;2022-08-30T14:39:53;20.63;;;10.25;;
35675;SDS011;21790;42.668;23.298;2022-08-30T14:42:18;22.15;;;10.60;;
35675;SDS011;21790;42.668;23.298;2022-08-30T14:44:44;17.55;;;9.90;;
35675;SDS011;21790;42.668;23.298;2022-08-30T14:47:09;21.95;;;11.10;;
35675;SDS011;21790;42.668;23.298;2022-08-30T14:49:35;17.77;;;10.30;;
35675;SDS011;21790;42.668;23.298;2022-08-30T14:52:01;15.65;;;10.40;;
35675;SDS011;21790;42.668;23.298;2022-08-30T14:54:27;22.55;;;11.18;;
35675;SDS011;21790;42.668;23.298;2022-08-30T14:56:54;18.38;;;10.45;;
35675;SDS011;21790;42.668;23.298;2022-08-30T14:59:20;17.30;;;10.88;;
35675;SDS011;21790;42.668;23.298;2022-08-30T15:01:47;18.38;;;10.35;;
35675;SDS011;21790;42.668;23.298;2022-08-30T15:04:13;15.27;;;10.00;;
35675;SDS011;21790;42.668;23.298;2022-08-30T15:06:40;19.27;;;10.82;;
35675;SDS011;21790;42.668;23.298;2022-08-30T15:09:08;14.15;;;9.32;;
35675;SDS011;21790;42.668;23.298;2022-08-30T15:11:35;14.52;;;10.00;;
35675;SDS011;21790;42.668;23.298;2022-08-30T15:14:01;17.48;;;9.63;;
35675;SDS011;21790;42.668;23.298;2022-08-30T15:16:28;20.35;;;10.98;;
35675;SDS011;21790;42.668;23.298;2022-08-30T15:18:57;21.23;;;10.35;;
35675;SDS011;21790;42.668;23.298;2022-08-30T15:23:48;15.95;;;10.38;;
35675;SDS011;21790;42.668;23.298;2022-08-30T15:26:14;22.83;;;10.52;;
35675;SDS011;21790;42.668;23.298;2022-08-30T15:28:39;21.20;;;10.65;;
35675;SDS011;21790;42.668;23.298;2022-08-30T15:31:04;14.18;;;9.40;;
35675;SDS011;21790;42.668;23.298;2022-08-30T15:33:30;18.27;;;10.85;;
35675;SDS011;21790;42.668;23.298;2022-08-30T15:35:58;14.82;;;9.93;;
35675;SDS011;21790;42.668;23.298;2022-08-30T15:38:25;13.23;;;10.50;;
35675;SDS011;21790;42.668;23.298;2022-08-30T15:40:51;16.95;;;10.68;;
35675;SDS011;21790;42.668;23.298;2022-08-30T15:43:16;16.23;;;9.65;;
35675;SDS011;21790;42.668;23.298;2022-08-30T15:45:42;17.70;;;10.60;;
35675;SDS011;21790;42.668;23.298;2022-08-30T15:48:07;18.33;;;9.90;;
35675;SDS011;21790;42.668;23.298;2022-08-30T15:50:33;18.05;;;10.00;;
35675;SDS011;21790;42.668;23.298;2022-08-30T15:52:59;18.48;;;10.57;;
35675;SDS011;21790;42.668;23.298;2022-08-30T15:55:25;18.13;;;9.98;;
35675;SDS011;21790;42.668;23.298;2022-08-30T15:57:51;16.25;;;11.23;;
35675;SDS011;21790;42.668;23.298;2022-08-30T16:00:16;19.95;;;10.38;;
35675;SDS011;21790;42.668;23.298;2022-08-30T16:02:42;18.30;;;10.35;;
35675;SDS011;21790;42.668;23.298;2022-08-30T16:05:08;18.67;;;10.45;;
35675;SDS011;21790;42.668;23.298;2022-08-30T16:07:33;18.65;;;10.77;;
35675;SDS011;21790;42.668;23.298;2022-08-30T16:09:59;21.67;;;10.18;;
35675;SDS011;21790;42.668;23.298;2022-08-30T16:12:24;18.80;;;10.82;;
35675;SDS011;21790;42.668;23.298;2022-08-30T16:14:50;17.63;;;10.15;;